Time;durP1;ratioP1;P1;durP2;ratioP2;P2;SDS_P1;SDS_P2;PMS_P1;PMS_P2;Temp;Humidity;BMP_temperature;BMP_pressure;BME280_temperature;BME280_humidity;BME280_pressure;Samples;Min_cycle;Max_cycle;Signal;HPM_P1;HPM_P2
2023/06/14 00:00:48;;;;;;;4.15;2.55;;;16.10;99.90;;;;;;5008810;28;20212;-71
2023/06/14 00:03:17;;;;;;;3.92;2.40;;;16.10;99.90;;;;;;5003716;28;20206;-72
2023/06/14 00:05:43;;;;;;;2.78;2.22;;;16.10;99.90;;;;;;5004897;28;20196;-72
2023/06/14 00:08:10;;;;;;;2.83;2.15;;;16.00;99.90;;;;;;5008457;28;20178;-72
2023/06/14 00:10:36;;;;;;;4.50;2.60;;;16.10;99.90;;;;;;5004362;28;20704;-71
2023/06/14 00:13:07;;;;;;;4.95;2.28;;;16.10;99.90;;;;;;5008635;28;20232;-70
2023/06/14 00:15:33;;;;;;;3.30;2.50;;;16.10;99.90;;;;;;5007655;28;20596;-71
2023/06/14 00:18:01;;;;;;;5.65;2.83;;;16.10;99.90;;;;;;5011716;28;20178;-71
2023/06/14 00:20:28;;;;;;;2.70;2.35;;;16.00;99.90;;;;;;5010401;28;20280;-71
2023/06/14 00:22:57;;;;;;;3.55;2.67;;;15.80;99.90;;;;;;5007181;28;20216;-71
2023/06/14 00:25:25;;;;;;;4.97;3.00;;;15.90;99.90;;;;;;5008000;28;20341;-71
2023/06/14 00:27:51;;;;;;;4.15;2.60;;;15.90;99.90;;;;;;5006486;28;20228;-71
2023/06/14 00:30:16;;;;;;;3.17;2.58;;;15.90;99.90;;;;;;5006360;28;20678;-70
2023/06/14 00:32:43;;;;;;;3.67;2.33;;;15.80;99.90;;;;;;5008085;28;20216;-70
2023/06/14 00:35:09;;;;;;;6.05;2.53;;;15.80;99.90;;;;;;5005550;28;20681;-71
2023/06/14 00:37:35;;;;;;;4.85;3.08;;;15.80;99.90;;;;;;5006087;28;20255;-71
2023/06/14 00:40:01;;;;;;;5.10;2.63;;;15.90;99.90;;;;;;5000381;28;20254;-70
2023/06/14 00:42:28;;;;;;;3.40;2.70;;;15.90;99.90;;;;;;5002931;28;20239;-71
2023/06/14 00:44:54;;;;;;;3.25;2.95;;;15.90;99.90;;;;;;5004702;28;20185;-71
2023/06/14 00:47:20;;;;;;;2.97;2.63;;;15.80;99.90;;;;;;5002997;28;20180;-71
2023/06/14 00:49:47;;;;;;;6.68;3.35;;;15.80;99.90;;;;;;5009430;28;20228;-71
2023/06/14 00:52:14;;;;;;;4.18;2.70;;;15.70;99.90;;;;;;5000770;28;20295;-72
2023/06/14 00:54:41;;;;;;;6.65;3.15;;;15.80;99.90;;;;;;5011236;28;20695;-71
2023/06/14 00:57:07;;;;;;;6.63;3.58;;;15.70;99.90;;;;;;5009033;28;20287;-68
2023/06/14 00:59:33;;;;;;;4.05;2.80;;;15.60;99.90;;;;;;5009528;28;20181;-71
2023/06/14 01:01:59;;;;;;;5.95;3.78;;;15.50;99.90;;;;;;5009830;28;20223;-71
2023/06/14 01:04:24;;;;;;;5.45;3.22;;;15.50;99.90;;;;;;5007714;28;20692;-71
2023/06/14 01:07:13;;;;;;;7.05;3.30;;;15.60;99.90;;;;;;5007932;28;20635;-71
2023/06/14 01:09:54;;;;;;;4.40;3.28;;;15.50;99.90;;;;;;5002129;28;20209;-71
2023/06/14 01:12:38;;;;;;;4.75;3.22;;;15.50;99.90;;;;;;5004879;28;20279;-71
2023/06/14 01:15:05;;;;;;;5.43;3.42;;;15.60;99.90;;;;;;5005191;28;20221;-72
2023/06/14 01:17:31;;;;;;;4.35;3.53;;;15.50;99.90;;;;;;5005804;28;20252;-70
2023/06/14 01:19:59;;;;;;;5.70;3.92;;;15.50;99.90;;;;;;5004550;28;20589;-72
2023/06/14 01:22:28;;;;;;;6.40;3.60;;;15.60;99.90;;;;;;5004253;28;20583;-71
2023/06/14 01:24:55;;;;;;;8.70;3.15;;;15.60;99.90;;;;;;5003272;28;20311;-71
2023/06/14 01:27:32;;;;;;;6.68;4.10;;;15.50;99.90;;;;;;4999247;28;20740;-72
2023/06/14 01:29:59;;;;;;;5.82;3.58;;;15.50;99.90;;;;;;5001474;28;20604;-71
2023/06/14 01:32:26;;;;;;;6.43;4.15;;;15.50;99.90;;;;;;5002719;28;20233;-72
2023/06/14 01:34:52;;;;;;;5.78;3.95;;;15.60;99.90;;;;;;5001399;28;20658;-71
2023/06/14 01:37:19;;;;;;;9.00;3.58;;;15.60;99.90;;;;;;5005415;28;20236;-71
2023/06/14 01:39:45;;;;;;;4.30;3.90;;;15.60;99.90;;;;;;5009031;28;20609;-71
2023/06/14 01:42:13;;;;;;;6.28;4.15;;;15.60;99.90;;;;;;5006946;28;20263;-71
2023/06/14 01:44:40;;;;;;;5.32;3.42;;;15.50;99.90;;;;;;5009684;28;20651;-71
2023/06/14 01:47:06;;;;;;;6.05;3.95;;;15.50;99.90;;;;;;5006498;28;20714;-71
2023/06/14 01:49:34;;;;;;;8.65;3.90;;;15.60;99.90;;;;;;5007484;28;20689;-71
2023/06/14 01:52:00;;;;;;;7.32;3.80;;;15.60;99.90;;;;;;5006536;28;20212;-71
2023/06/14 01:54:27;;;;;;;5.43;3.95;;;15.60;99.90;;;;;;5005275;28;20688;-72
2023/06/14 01:56:53;;;;;;;4.50;3.70;;;15.70;99.90;;;;;;5007797;28;20193;-71
2023/06/14 01:59:18;;;;;;;4.75;3.78;;;15.60;99.90;;;;;;5002034;28;20187;-72
2023/06/14 02:01:46;;;;;;;4.28;3.30;;;15.60;99.90;;;;;;5005164;28;20233;-71
2023/06/14 02:04:11;;;;;;;6.47;3.92;;;15.60;99.90;;;;;;5002213;28;20197;-71
2023/06/14 02:06:37;;;;;;;5.38;4.10;;;15.60;99.90;;;;;;5002887;28;20254;-72
2023/06/14 02:09:03;;;;;;;8.48;4.57;;;15.50;99.90;;;;;;4999443;28;20296;-71
2023/06/14 02:11:29;;;;;;;4.63;3.88;;;15.50;99.90;;;;;;5002609;28;20193;-71
2023/06/14 02:13:56;;;;;;;7.55;4.43;;;15.50;99.90;;;;;;5006886;28;20918;-71
2023/06/14 02:16:22;;;;;;;6.53;4.43;;;15.40;99.90;;;;;;5009257;28;20227;-71
2023/06/14 02:18:48;;;;;;;5.18;4.43;;;15.30;99.90;;;;;;5005338;28;20596;-72
2023/06/14 02:21:14;;;;;;;7.20;4.68;;;15.30;99.90;;;;;;5002912;28;20213;-71
2023/06/14 02:23:40;;;;;;;4.63;3.95;;;15.30;99.90;;;;;;5015838;28;20228;-72
2023/06/14 02:26:05;;;;;;;6.97;4.20;;;15.30;99.90;;;;;;5011402;28;20212;-72
2023/06/14 02:28:31;;;;;;;6.18;4.35;;;15.30;99.90;;;;;;5013771;28;20678;-70
2023/06/14 02:30:57;;;;;;;4.93;4.30;;;15.30;99.90;;;;;;5013323;28;20208;-71
2023/06/14 02:33:22;;;;;;;7.65;4.35;;;15.20;99.90;;;;;;5006434;28;20216;-71
2023/06/14 02:35:48;;;;;;;7.13;5.22;;;15.20;99.90;;;;;;5008735;28;20204;-72
2023/06/14 02:38:14;;;;;;;7.65;4.50;;;15.20;99.90;;;;;;5006355;28;20174;-72
2023/06/14 02:40:42;;;;;;;6.28;4.97;;;15.10;99.90;;;;;;5006572;28;20609;-71
2023/06/14 02:43:08;;;;;;;5.57;4.50;;;15.20;99.90;;;;;;5005183;28;20225;-68
2023/06/14 02:45:33;;;;;;;8.07;5.30;;;15.10;99.90;;;;;;5006807;28;20237;-71
2023/06/14 02:47:59;;;;;;;8.13;4.65;;;15.10;99.90;;;;;;5005621;28;20177;-70
2023/06/14 02:50:25;;;;;;;6.72;4.68;;;15.00;99.90;;;;;;5006814;28;20594;-70
2023/06/14 02:52:52;;;;;;;6.20;4.30;;;15.10;99.90;;;;;;5012978;28;20300;-71
2023/06/14 02:55:18;;;;;;;7.60;4.88;;;15.00;99.90;;;;;;5004408;28;20300;-71
2023/06/14 02:57:43;;;;;;;8.13;4.63;;;15.00;99.90;;;;;;5005641;28;20284;-71
2023/06/14 03:00:10;;;;;;;6.57;4.85;;;15.00;99.90;;;;;;5007749;28;20765;-69
2023/06/14 03:02:36;;;;;;;5.22;4.72;;;15.00;99.90;;;;;;5005927;28;20173;-72
2023/06/14 03:05:02;;;;;;;10.38;4.80;;;15.00;99.90;;;;;;5013506;28;20638;-71
2023/06/14 03:07:29;;;;;;;8.43;4.97;;;15.00;99.90;;;;;;5009473;28;20210;-68
2023/06/14 03:09:55;;;;;;;6.50;4.97;;;15.00;99.90;;;;;;5008888;28;20224;-69
2023/06/14 03:12:20;;;;;;;8.18;4.53;;;15.00;99.90;;;;;;5004720;28;20228;-69
2023/06/14 03:14:46;;;;;;;8.20;4.75;;;15.10;99.90;;;;;;5007745;28;20703;-69
2023/06/14 03:17:12;;;;;;;7.85;4.72;;;15.10;99.90;;;;;;5007364;28;20178;-69
2023/06/14 03:19:38;;;;;;;7.82;5.20;;;15.10;99.90;;;;;;5005057;28;20852;-69
2023/06/14 03:22:04;;;;;;;7.75;5.10;;;15.20;99.90;;;;;;5006049;28;20209;-69
2023/06/14 03:24:31;;;;;;;6.63;4.97;;;15.30;99.90;;;;;;5006219;28;20201;-68
2023/06/14 03:26:57;;;;;;;8.55;4.90;;;15.90;99.90;;;;;;5005939;28;20239;-69
2023/06/14 03:29:23;;;;;;;6.18;4.95;;;16.50;99.90;;;;;;5012703;28;20185;-71
2023/06/14 03:32:02;;;;;;;7.90;4.72;;;16.70;99.90;;;;;;5006981;28;20219;-70
2023/06/14 03:34:27;;;;;;;6.28;4.68;;;16.90;99.90;;;;;;5002008;28;20292;-70
2023/06/14 03:36:53;;;;;;;5.57;4.85;;;16.90;99.90;;;;;;5003240;28;20299;-70
2023/06/14 03:39:19;;;;;;;7.18;4.65;;;17.50;99.90;;;;;;5003123;28;20213;-69
2023/06/14 03:41:45;;;;;;;7.07;4.80;;;17.70;99.90;;;;;;5002676;28;20275;-69
2023/06/14 03:44:11;;;;;;;6.90;4.68;;;17.80;99.90;;;;;;5003631;28;20175;-69
2023/06/14 03:46:36;;;;;;;7.07;4.70;;;17.90;99.90;;;;;;5004850;28;20581;-69
2023/06/14 03:49:02;;;;;;;7.18;4.97;;;17.60;99.90;;;;;;5004102;28;20637;-69
2023/06/14 03:51:29;;;;;;;6.60;5.30;;;17.20;99.90;;;;;;5000819;28;20226;-68
2023/06/14 03:53:55;;;;;;;7.53;5.07;;;17.20;99.90;;;;;;5005497;28;20192;-69
2023/06/14 03:56:21;;;;;;;5.80;4.35;;;17.20;99.90;;;;;;5002716;28;20244;-69
2023/06/14 03:58:47;;;;;;;7.63;4.85;;;17.60;99.90;;;;;;5007502;28;20209;-69
2023/06/14 04:01:12;;;;;;;4.90;4.40;;;19.50;99.90;;;;;;5003426;28;20593;-70
2023/06/14 04:03:40;;;;;;;6.32;5.18;;;19.50;99.90;;;;;;5003388;28;20262;-69
2023/06/14 04:06:06;;;;;;;5.78;4.38;;;19.10;99.90;;;;;;5001107;28;20728;-69
2023/06/14 04:08:32;;;;;;;8.00;5.53;;;19.80;99.90;;;;;;5005241;28;20558;-69
2023/06/14 04:10:57;;;;;;;8.32;5.20;;;20.70;99.90;;;;;;5002186;28;20205;-70
2023/06/14 04:13:23;;;;;;;6.97;4.32;;;22.00;99.90;;;;;;5001629;28;20211;-69
2023/06/14 04:15:49;;;;;;;8.50;5.28;;;22.40;99.90;;;;;;5002292;28;20775;-69
2023/06/14 04:18:14;;;;;;;6.72;5.35;;;21.60;99.90;;;;;;5000324;28;20212;-69
2023/06/14 04:20:40;;;;;;;8.68;4.65;;;22.00;99.90;;;;;;5001821;28;20201;-69
2023/06/14 04:23:21;;;;;;;8.07;4.78;;;22.90;99.90;;;;;;5003695;28;20209;-69
2023/06/14 04:25:47;;;;;;;4.95;4.32;;;23.80;99.90;;;;;;4998615;28;20217;-69
2023/06/14 04:28:17;;;;;;;6.03;5.20;;;24.40;99.90;;;;;;5002745;28;20591;-70
2023/06/14 04:30:44;;;;;;;6.20;4.68;;;24.90;99.90;;;;;;5002299;28;20297;-68
2023/06/14 04:33:10;;;;;;;6.55;4.85;;;25.40;99.90;;;;;;5001679;28;20239;-67
2023/06/14 04:35:37;;;;;;;4.65;4.25;;;25.30;99.90;;;;;;5001668;28;20266;-70
2023/06/14 04:38:08;;;;;;;7.43;5.22;;;25.90;99.90;;;;;;5004416;28;20204;-70
2023/06/14 04:40:36;;;;;;;6.10;4.93;;;26.10;99.90;;;;;;5001477;28;20209;-70
2023/06/14 04:43:06;;;;;;;5.65;4.88;;;26.50;99.90;;;;;;5001218;28;20794;-70
2023/06/14 04:45:32;;;;;;;6.82;4.68;;;26.90;99.90;;;;;;5003239;28;20205;-69
2023/06/14 04:47:59;;;;;;;7.45;5.38;;;27.40;99.90;;;;;;5002823;28;20179;-69
2023/06/14 04:50:25;;;;;;;5.22;4.72;;;27.30;99.90;;;;;;5003986;28;20280;-69
2023/06/14 04:52:51;;;;;;;5.75;5.18;;;28.10;99.90;;;;;;5009769;28;20201;-69
2023/06/14 04:55:18;;;;;;;6.95;5.10;;;27.00;99.90;;;;;;5002652;28;20593;-69
2023/06/14 04:57:44;;;;;;;8.10;5.57;;;27.60;99.90;;;;;;5002555;28;20675;-69
2023/06/14 05:00:11;;;;;;;6.97;4.60;;;27.30;99.90;;;;;;5001650;28;20231;-70
2023/06/14 05:02:37;;;;;;;5.28;4.20;;;27.60;99.90;;;;;;5010475;28;20183;-70
2023/06/14 05:05:06;;;;;;;6.68;4.88;;;28.40;99.90;;;;;;5009986;28;20201;-67
2023/06/14 05:07:33;;;;;;;6.10;4.38;;;29.00;99.90;;;;;;5008926;28;20395;-69
2023/06/14 05:09:59;;;;;;;7.70;5.30;;;28.90;99.90;;;;;;5009142;28;20196;-68
2023/06/14 05:12:25;;;;;;;6.38;4.47;;;29.30;99.00;;;;;;5006175;28;20233;-68
2023/06/14 05:14:50;;;;;;;5.05;4.55;;;28.90;98.50;;;;;;5007164;28;20663;-69
2023/06/14 05:17:16;;;;;;;5.10;4.70;;;28.90;97.70;;;;;;5005479;28;20551;-68
2023/06/14 05:19:42;;;;;;;5.45;4.80;;;27.50;99.00;;;;;;5006954;28;20242;-67
2023/06/14 05:22:08;;;;;;;5.85;5.20;;;25.70;99.90;;;;;;5007508;28;20712;-68
2023/06/14 05:24:33;;;;;;;7.55;5.68;;;24.10;99.90;;;;;;5003779;28;20700;-68
2023/06/14 05:26:59;;;;;;;6.55;5.35;;;22.70;99.90;;;;;;5003509;28;20647;-69
2023/06/14 05:29:25;;;;;;;8.45;5.53;;;21.80;99.90;;;;;;5004153;28;20206;-69
2023/06/14 05:31:51;;;;;;;8.02;6.03;;;20.80;99.90;;;;;;5003728;28;20713;-69
2023/06/14 05:34:17;;;;;;;10.07;6.10;;;20.40;99.90;;;;;;5001151;28;20304;-69
2023/06/14 05:36:42;;;;;;;7.78;6.63;;;19.90;99.90;;;;;;5002624;28;20221;-69
2023/06/14 05:39:08;;;;;;;8.68;6.50;;;19.60;99.90;;;;;;5003077;28;20348;-69
2023/06/14 05:41:33;;;;;;;12.68;9.93;;;19.30;99.90;;;;;;4998087;28;20198;-70
2023/06/14 05:44:00;;;;;;;9.25;6.10;;;19.20;99.90;;;;;;5004745;28;20283;-69
2023/06/14 05:46:26;;;;;;;6.45;5.80;;;19.10;99.90;;;;;;5007645;28;20558;-70
2023/06/14 05:48:52;;;;;;;6.55;5.85;;;18.90;99.90;;;;;;5008764;28;20212;-69
2023/06/14 05:51:20;;;;;;;8.75;6.68;;;18.60;99.90;;;;;;5007014;28;20358;-69
2023/06/14 05:53:47;;;;;;;14.18;10.15;;;18.40;99.90;;;;;;5007558;28;20557;-69
2023/06/14 05:56:13;;;;;;;14.90;11.05;;;18.20;99.90;;;;;;4998768;28;20578;-69
2023/06/14 05:58:39;;;;;;;8.95;7.03;;;18.20;99.90;;;;;;5008346;28;20197;-69
2023/06/14 06:01:05;;;;;;;12.13;9.63;;;18.00;99.90;;;;;;5004774;28;20288;-69
2023/06/14 06:03:31;;;;;;;9.38;7.15;;;18.00;99.90;;;;;;5003801;28;20220;-69
2023/06/14 06:05:57;;;;;;;9.95;7.75;;;17.90;99.90;;;;;;5002632;28;20697;-70
2023/06/14 06:08:22;;;;;;;12.20;6.93;;;17.80;99.90;;;;;;5007968;28;20599;-69
2023/06/14 06:10:48;;;;;;;10.52;6.47;;;17.60;99.90;;;;;;5004130;28;20627;-68
2023/06/14 06:13:13;;;;;;;10.90;6.20;;;17.80;99.90;;;;;;4999652;28;20738;-70
2023/06/14 06:15:39;;;;;;;9.40;6.25;;;17.90;99.90;;;;;;5007041;28;20205;-69
2023/06/14 06:18:05;;;;;;;7.38;6.38;;;18.00;99.90;;;;;;4999637;28;20695;-69
2023/06/14 06:20:31;;;;;;;7.53;5.78;;;18.10;99.90;;;;;;5008536;28;20255;-68
2023/06/14 06:22:59;;;;;;;9.55;6.60;;;18.10;99.90;;;;;;5009962;28;20742;-69
2023/06/14 06:25:26;;;;;;;9.85;7.55;;;18.00;99.90;;;;;;5008516;28;20216;-68
2023/06/14 06:27:53;;;;;;;7.43;5.45;;;18.10;99.90;;;;;;5008269;28;20717;-69
2023/06/14 06:30:19;;;;;;;11.35;6.03;;;18.20;99.90;;;;;;5006872;28;20224;-69
2023/06/14 06:32:45;;;;;;;9.13;5.90;;;18.20;99.90;;;;;;5009046;28;20251;-69
2023/06/14 06:35:12;;;;;;;11.45;5.57;;;18.30;99.90;;;;;;5006216;28;20173;-69
2023/06/14 06:37:38;;;;;;;9.23;7.03;;;18.30;99.90;;;;;;5007714;28;20200;-70
2023/06/14 06:40:05;;;;;;;10.05;6.57;;;18.30;99.90;;;;;;4999932;28;20770;-69
2023/06/14 06:42:32;;;;;;;9.02;6.18;;;18.30;99.90;;;;;;5002586;28;20254;-70
2023/06/14 06:44:57;;;;;;;7.20;6.05;;;18.20;99.90;;;;;;5003656;28;20177;-69
2023/06/14 06:47:24;;;;;;;12.05;6.43;;;18.20;99.90;;;;;;5003116;28;20525;-71
2023/06/14 06:49:50;;;;;;;8.55;5.45;;;18.10;99.90;;;;;;5004343;28;20208;-70
2023/06/14 06:52:16;;;;;;;9.93;5.80;;;18.30;99.90;;;;;;5001026;28;20217;-68
2023/06/14 06:54:41;;;;;;;8.90;5.50;;;18.30;99.90;;;;;;4999365;28;20614;-70
2023/06/14 06:57:07;;;;;;;9.65;5.38;;;18.40;99.90;;;;;;4997483;28;20225;-69
2023/06/14 06:59:33;;;;;;;11.55;7.70;;;18.60;99.90;;;;;;5004685;28;20196;-69
2023/06/14 07:01:59;;;;;;;8.18;6.15;;;18.70;99.90;;;;;;5001583;28;20213;-69
2023/06/14 07:04:24;;;;;;;9.30;5.65;;;18.70;99.90;;;;;;5006976;28;20212;-68
2023/06/14 07:06:50;;;;;;;9.55;5.55;;;18.80;99.90;;;;;;5006850;28;20205;-69
2023/06/14 07:09:16;;;;;;;8.85;6.20;;;18.80;99.90;;;;;;5011121;28;20217;-69
2023/06/14 07:11:43;;;;;;;7.60;5.30;;;18.90;99.90;;;;;;5007102;28;20292;-69
2023/06/14 07:14:09;;;;;;;7.22;5.47;;;19.20;99.90;;;;;;5009631;28;20264;-71
2023/06/14 07:16:34;;;;;;;8.60;5.60;;;19.40;99.90;;;;;;5009158;28;20771;-70
2023/06/14 07:19:04;;;;;;;8.23;5.60;;;19.60;99.90;;;;;;5009630;28;20205;-70
2023/06/14 07:21:30;;;;;;;9.32;5.93;;;19.70;99.90;;;;;;5008547;28;20216;-69
2023/06/14 07:23:56;;;;;;;8.20;5.32;;;19.80;99.90;;;;;;5011404;28;20173;-69
2023/06/14 07:26:22;;;;;;;11.88;5.40;;;19.50;99.90;;;;;;5006411;28;20757;-70
2023/06/14 07:28:48;;;;;;;8.30;5.55;;;19.30;99.90;;;;;;5007869;28;20227;-69
2023/06/14 07:31:15;;;;;;;9.27;5.63;;;19.60;99.90;;;;;;5004115;28;20696;-69
2023/06/14 07:33:41;;;;;;;8.70;5.43;;;19.70;99.90;;;;;;5011809;28;20220;-69
2023/06/14 07:36:07;;;;;;;11.15;5.18;;;20.00;99.90;;;;;;5001935;28;20221;-71
2023/06/14 07:38:33;;;;;;;6.55;5.60;;;20.40;99.90;;;;;;5007438;28;20683;-70
2023/06/14 07:41:00;;;;;;;8.00;4.85;;;20.80;99.90;;;;;;5001979;28;20636;-70
2023/06/14 07:43:25;;;;;;;11.27;5.57;;;21.00;99.90;;;;;;5004800;28;20613;-69
2023/06/14 07:45:51;;;;;;;13.25;5.43;;;21.80;99.90;;;;;;5011310;28;20201;-70
2023/06/14 07:48:18;;;;;;;9.40;4.97;;;23.00;99.90;;;;;;5010955;28;20237;-70
2023/06/14 07:50:44;;;;;;;9.35;4.85;;;23.80;99.90;;;;;;5011143;28;20204;-69
2023/06/14 07:53:09;;;;;;;9.15;5.15;;;24.10;99.90;;;;;;5010612;28;20170;-70
2023/06/14 07:55:36;;;;;;;7.90;5.80;;;24.60;99.90;;;;;;5010460;28;20205;-70
2023/06/14 07:58:03;;;;;;;9.18;4.93;;;25.10;99.90;;;;;;5010605;28;20734;-71
2023/06/14 08:00:29;;;;;;;7.97;4.80;;;25.70;99.90;;;;;;5007159;28;20213;-69
2023/06/14 08:03:01;;;;;;;8.38;5.60;;;26.10;99.90;;;;;;5011241;28;20180;-71
2023/06/14 08:05:28;;;;;;;6.90;4.10;;;25.90;99.90;;;;;;5006926;28;20533;-71
2023/06/14 08:07:54;;;;;;;6.03;4.28;;;26.80;99.90;;;;;;5006486;28;20213;-71
2023/06/14 08:10:20;;;;;;;7.40;4.78;;;28.00;99.90;;;;;;5004425;28;20648;-71
2023/06/14 08:12:45;;;;;;;7.45;4.72;;;29.20;99.90;;;;;;5002289;28;20209;-72
2023/06/14 08:15:11;;;;;;;5.97;3.78;;;29.70;99.90;;;;;;5002192;28;20767;-68
2023/06/14 08:17:40;;;;;;;5.78;4.03;;;31.00;99.80;;;;;;5004024;28;20559;-72
2023/06/14 08:20:06;;;;;;;7.43;3.97;;;30.80;97.20;;;;;;5007136;28;20300;-72
2023/06/14 08:22:36;;;;;;;5.97;3.92;;;29.70;97.60;;;;;;5004151;28;20288;-72
2023/06/14 08:25:01;;;;;;;8.45;3.80;;;28.30;99.40;;;;;;5007886;28;20216;-69
2023/06/14 08:27:27;;;;;;;9.18;3.80;;;26.80;99.90;;;;;;5010691;28;20209;-72
2023/06/14 08:29:53;;;;;;;4.88;3.88;;;25.90;99.90;;;;;;5011217;28;20173;-72
2023/06/14 08:32:19;;;;;;;8.10;3.80;;;25.50;99.90;;;;;;5008841;28;20611;-71
2023/06/14 08:34:45;;;;;;;5.72;3.53;;;25.40;99.90;;;;;;5009865;28;20209;-72
2023/06/14 08:37:10;;;;;;;8.15;3.90;;;25.30;99.90;;;;;;5007865;28;20717;-73
2023/06/14 08:39:36;;;;;;;8.88;3.50;;;26.20;99.90;;;;;;5008932;28;20209;-71
2023/06/14 08:42:03;;;;;;;7.75;3.92;;;27.60;99.90;;;;;;5006535;28;20225;-71
2023/06/14 08:44:30;;;;;;;8.07;3.42;;;29.00;99.90;;;;;;5005394;28;20178;-70
2023/06/14 08:46:57;;;;;;;7.30;3.75;;;28.80;99.50;;;;;;5008554;28;20805;-71
2023/06/14 08:49:24;;;;;;;6.35;3.80;;;28.40;99.40;;;;;;5003306;28;20229;-71
2023/06/14 08:51:58;;;;;;;8.00;5.20;;;27.30;99.90;;;;;;5006123;28;20213;-71
2023/06/14 08:54:35;;;;;;;5.47;4.07;;;27.00;99.90;;;;;;5003582;28;20634;-71
2023/06/14 08:57:02;;;;;;;8.13;4.60;;;26.50;99.90;;;;;;5002683;28;20203;-71
2023/06/14 08:59:28;;;;;;;6.95;3.95;;;25.70;99.90;;;;;;5007345;28;20173;-71
2023/06/14 09:01:54;;;;;;;6.47;3.85;;;25.00;99.90;;;;;;5002558;28;20211;-71
2023/06/14 09:04:29;;;;;;;6.95;3.88;;;24.90;99.90;;;;;;4999557;28;20704;-71
2023/06/14 09:06:55;;;;;;;4.97;3.50;;;23.90;99.90;;;;;;5010632;28;20203;-71
2023/06/14 09:09:22;;;;;;;4.93;4.00;;;23.80;99.90;;;;;;5010066;28;20691;-71
2023/06/14 09:11:50;;;;;;;7.38;3.95;;;23.70;99.90;;;;;;5009672;28;20217;-72
2023/06/14 09:14:15;;;;;;;5.30;3.28;;;23.40;99.90;;;;;;5008359;28;20272;-71
2023/06/14 09:16:41;;;;;;;6.70;3.45;;;23.80;99.90;;;;;;5008259;28;20307;-71
2023/06/14 09:19:07;;;;;;;7.07;4.47;;;24.20;99.90;;;;;;5007755;28;20258;-71
2023/06/14 09:21:37;;;;;;;6.15;3.92;;;24.50;99.90;;;;;;5007267;28;20223;-72
2023/06/14 09:24:04;;;;;;;9.73;5.45;;;24.90;99.90;;;;;;5009393;28;20953;-71
2023/06/14 09:26:30;;;;;;;5.95;3.50;;;24.90;99.90;;;;;;5005702;28;20286;-71
2023/06/14 09:28:55;;;;;;;6.53;3.83;;;25.10;99.90;;;;;;5006161;28;20293;-71
2023/06/14 09:31:22;;;;;;;7.25;4.55;;;24.90;99.90;;;;;;5001324;28;20217;-72
2023/06/14 09:33:49;;;;;;;4.28;3.80;;;24.70;99.90;;;;;;5004100;28;20205;-71
2023/06/14 09:36:22;;;;;;;3.92;3.47;;;24.10;99.90;;;;;;5001149;28;20304;-71
2023/06/14 09:39:05;;;;;;;7.35;3.67;;;23.60;99.90;;;;;;5004001;28;20272;-71
2023/06/14 09:41:42;;;;;;;7.07;3.70;;;23.20;99.90;;;;;;5001642;28;20194;-70
2023/06/14 09:44:09;;;;;;;8.70;4.80;;;22.90;99.90;;;;;;5000000;28;20296;-71
2023/06/14 09:46:36;;;;;;;8.85;4.00;;;23.00;99.90;;;;;;5009748;28;20210;-71
2023/06/14 09:49:03;;;;;;;8.55;4.68;;;23.10;99.90;;;;;;5010347;28;20687;-71
2023/06/14 09:51:32;;;;;;;6.43;3.65;;;23.00;99.90;;;;;;5008962;28;20239;-69
2023/06/14 09:54:01;;;;;;;6.30;3.67;;;23.10;99.90;;;;;;5009120;28;20181;-71
2023/06/14 09:56:27;;;;;;;6.22;3.60;;;22.90;99.90;;;;;;5008045;28;20216;-72
2023/06/14 09:58:56;;;;;;;16.33;4.35;;;22.60;99.90;;;;;;5006607;28;20209;-71
2023/06/14 10:01:24;;;;;;;6.78;3.85;;;22.70;99.90;;;;;;5005952;28;20214;-71
2023/06/14 10:03:55;;;;;;;5.82;4.20;;;22.80;99.90;;;;;;5006887;28;20197;-71
2023/06/14 10:06:24;;;;;;;10.55;4.47;;;23.10;99.90;;;;;;5003742;28;20214;-72
2023/06/14 10:08:52;;;;;;;5.88;4.18;;;23.10;99.90;;;;;;5002205;28;20171;-71
2023/06/14 10:11:18;;;;;;;6.00;3.92;;;22.80;99.90;;;;;;5005034;28;20201;-71
2023/06/14 10:13:44;;;;;;;8.98;4.47;;;22.70;99.90;;;;;;5007587;28;20201;-72
2023/06/14 10:16:16;;;;;;;6.82;5.22;;;22.80;99.90;;;;;;5004699;28;20263;-71
2023/06/14 10:18:45;;;;;;;5.43;4.25;;;22.60;99.90;;;;;;5002212;28;20271;-72
2023/06/14 10:21:21;;;;;;;7.20;3.90;;;22.40;99.90;;;;;;5002302;28;20216;-71
2023/06/14 10:23:49;;;;;;;6.63;4.88;;;22.40;99.90;;;;;;5002866;28;20187;-71
2023/06/14 10:26:23;;;;;;;8.63;3.90;;;22.50;99.90;;;;;;5001455;28;20228;-69
2023/06/14 10:29:11;;;;;;;9.10;4.88;;;22.80;99.90;;;;;;5009478;28;20205;-67
2023/06/14 10:31:45;;;;;;;7.28;4.00;;;23.00;99.90;;;;;;4991178;28;20275;-69
2023/06/14 10:34:12;;;;;;;5.85;4.75;;;23.20;99.90;;;;;;5005959;28;20205;-70
2023/06/14 10:36:43;;;;;;;7.30;3.72;;;23.10;99.90;;;;;;5001577;28;20323;-69
2023/06/14 10:39:17;;;;;;;6.05;4.45;;;23.00;99.90;;;;;;5005605;28;20208;-70
2023/06/14 10:41:52;;;;;;;6.75;4.15;;;23.30;99.90;;;;;;5002276;28;20239;-70
2023/06/14 10:44:20;;;;;;;10.48;5.07;;;23.10;99.90;;;;;;5007723;28;20263;-71
2023/06/14 10:46:47;;;;;;;8.27;4.05;;;23.20;99.90;;;;;;5009781;28;20201;-70
2023/06/14 10:49:18;;;;;;;8.38;4.38;;;23.60;99.90;;;;;;5007114;28;20205;-69
2023/06/14 10:51:49;;;;;;;7.75;3.78;;;23.40;99.90;;;;;;5007986;28;20292;-69
2023/06/14 10:54:16;;;;;;;7.25;3.95;;;23.60;99.90;;;;;;5005788;28;20288;-70
2023/06/14 10:56:51;;;;;;;5.82;4.20;;;23.50;99.90;;;;;;5012205;28;20691;-71
2023/06/14 10:59:18;;;;;;;8.13;5.43;;;23.20;99.90;;;;;;5008226;28;20211;-71
2023/06/14 11:01:55;;;;;;;9.05;4.30;;;23.10;99.90;;;;;;5006494;28;20900;-71
2023/06/14 11:04:22;;;;;;;10.07;3.53;;;23.00;99.90;;;;;;5003924;28;20677;-71
2023/06/14 11:06:49;;;;;;;7.32;4.00;;;23.20;99.90;;;;;;5004658;28;20763;-71
2023/06/14 11:09:34;;;;;;;8.63;4.68;;;23.10;99.90;;;;;;5010050;28;20267;-71
2023/06/14 11:12:02;;;;;;;10.15;6.30;;;23.10;99.90;;;;;;5012670;28;20193;-71
2023/06/14 11:14:31;;;;;;;7.38;4.30;;;23.30;99.90;;;;;;5011628;28;20177;-71
2023/06/14 11:16:56;;;;;;;7.38;3.80;;;23.70;99.90;;;;;;5011323;28;20217;-71
2023/06/14 11:19:22;;;;;;;7.70;4.20;;;23.90;99.90;;;;;;5008473;28;20235;-70
2023/06/14 11:21:51;;;;;;;10.63;4.63;;;24.10;99.90;;;;;;5011003;28;20227;-71
2023/06/14 11:24:17;;;;;;;7.63;4.65;;;24.10;99.90;;;;;;5008245;28;20215;-71
2023/06/14 11:26:43;;;;;;;7.28;5.00;;;24.30;99.90;;;;;;5009251;28;20261;-69
2023/06/14 11:29:09;;;;;;;8.75;4.53;;;24.60;99.90;;;;;;5006696;28;20252;-70
2023/06/14 11:31:35;;;;;;;5.65;3.72;;;24.50;99.90;;;;;;5007816;28;20223;-70
2023/06/14 11:34:00;;;;;;;8.90;3.47;;;24.10;99.90;;;;;;5007412;28;20212;-70
2023/06/14 11:36:31;;;;;;;7.20;3.55;;;24.10;99.90;;;;;;5004932;28;20229;-70
2023/06/14 11:39:06;;;;;;;5.70;3.97;;;23.80;99.90;;;;;;5010297;28;20173;-70
2023/06/14 11:41:40;;;;;;;4.60;3.28;;;23.90;99.90;;;;;;5005975;28;20281;-70
2023/06/14 11:44:07;;;;;;;8.93;4.03;;;24.30;99.90;;;;;;5003179;28;20299;-72
2023/06/14 11:46:33;;;;;;;5.65;4.15;;;24.10;99.90;;;;;;5003624;28;20561;-70
2023/06/14 11:49:02;;;;;;;8.23;4.85;;;24.00;99.90;;;;;;5000777;28;20201;-70
2023/06/14 11:51:29;;;;;;;6.47;3.60;;;24.00;99.90;;;;;;5008650;28;20217;-69
2023/06/14 11:53:55;;;;;;;8.25;3.83;;;24.00;99.90;;;;;;5002194;28;20166;-72
2023/06/14 11:56:21;;;;;;;9.45;3.83;;;24.20;99.90;;;;;;5001831;28;20220;-70
2023/06/14 11:58:47;;;;;;;8.38;3.95;;;24.60;99.90;;;;;;5006543;28;20205;-69
2023/06/14 12:01:17;;;;;;;6.90;3.78;;;24.40;99.90;;;;;;5009177;28;20592;-69
2023/06/14 12:03:53;;;;;;;8.15;4.90;;;24.30;99.90;;;;;;5004707;28;20209;-70
2023/06/14 12:06:32;;;;;;;7.40;3.95;;;24.70;99.90;;;;;;5003856;28;20253;-72
2023/06/14 12:08:58;;;;;;;5.18;3.75;;;24.60;99.90;;;;;;4998449;28;20170;-70
2023/06/14 12:11:31;;;;;;;5.65;3.75;;;24.70;99.90;;;;;;5006519;28;20192;-70
2023/06/14 12:13:57;;;;;;;6.25;4.05;;;24.70;99.90;;;;;;5008165;28;20361;-70
2023/06/14 12:16:31;;;;;;;8.35;3.70;;;24.30;99.90;;;;;;5006661;28;20679;-70
2023/06/14 12:19:01;;;;;;;7.60;3.70;;;24.10;99.90;;;;;;5002036;28;20223;-74
2023/06/14 12:21:28;;;;;;;7.78;3.55;;;24.00;99.90;;;;;;4991733;28;20212;-71
2023/06/14 12:23:54;;;;;;;7.30;4.03;;;24.30;99.90;;;;;;5003395;28;20173;-74
2023/06/14 12:26:21;;;;;;;5.68;3.78;;;24.50;99.90;;;;;;5003299;28;20193;-72
2023/06/14 12:28:47;;;;;;;7.95;4.07;;;24.50;99.90;;;;;;5007931;28;20691;-73
2023/06/14 12:31:15;;;;;;;8.57;3.78;;;24.30;99.90;;;;;;5010086;28;20592;-73
2023/06/14 12:33:41;;;;;;;7.78;4.50;;;23.90;99.90;;;;;;5009403;28;20296;-77
2023/06/14 12:36:08;;;;;;;5.93;4.03;;;23.70;99.90;;;;;;5009016;28;20849;-73
2023/06/14 12:38:34;;;;;;;8.30;3.60;;;23.60;99.90;;;;;;5006752;28;20178;-73
2023/06/14 12:41:00;;;;;;;8.82;4.28;;;23.60;99.90;;;;;;5006503;28;20304;-73
2023/06/14 12:43:26;;;;;;;13.80;5.97;;;23.80;99.90;;;;;;5006128;28;20221;-74
2023/06/14 12:45:51;;;;;;;9.77;3.85;;;23.80;99.90;;;;;;5002804;28;20636;-74